Latest Coastal Weather Observations for Cape Flattery

IDQ60701

Issued at 3:52 am EST Friday 1 July 2016 (issued every 10 minutes, with the page automatically refreshed every 10 minutes)

About coastal observations | Map of coastal stations | Coastal observations for QLD | Marine services | Other Formats
Station Details ID: 031213 Name: CAPE FLATTERY Lat: -14.97 Lon: 145.31 Height: 18.5 m
Data from the previous 72 hours. | See also: Recent months at Cape Flattery
Date/Time
EST
Temp
°C
Wind Pressure Rain since
9am
mm
Weather Cloud Vis
km
Sea
Height
m
Swell
Dir  Spd
kts
Gust
kts
hPa Trend Height
m
Period
s
Dir
01/03:30am 24.5 SE 12 17 1016.0 - 0.0 - - - - - - -
01/03:00am 24.4 SE 12 17 1016.1 - 0.0 - - - - - - -
01/02:30am 23.9 SSE 11 15 1016.5 - 0.0 - - - - - - -
01/02:00am 24.3 SE 14 18 1016.7 - 0.0 - - - - - - -
01/01:30am 24.1 SE 12 16 1016.9 - 0.0 - - - - - - -
01/01:00am 24.6 SE 12 17 1017.4 - 0.0 - - - - - - -
01/12:30am 24.7 SE 13 19 1017.4 - 0.0 - - - - - - -
01/12:00am 24.6 SSE 17 22 1017.3 - 0.0 - - - - - - -
 
Date/Time
EST
Temp
°C
Wind Pressure Rain since
9am
mm
Weather Cloud Vis
km
Sea
Height
m
Swell
Dir  Spd
kts
Gust
kts
hPa Trend Height
m
Period
s
Dir
30/11:30pm 24.9 SSE 14 19 1017.4 - 0.0 - - - - - - -
30/11:00pm 25.1 SSE 16 21 1017.7 - 0.0 - - - - - - -
30/10:30pm 24.9 SSE 16 21 1017.7 - 0.0 - - - - - - -
30/10:00pm 24.8 SSE 17 23 1017.6 - 0.0 - - - - - - -
30/09:30pm 25.0 SSE 15 21 1017.8 - 0.0 - - - - - - -
30/09:00pm 25.0 SE 14 19 1017.8 - 0.0 - - - - - - -
30/08:30pm 24.9 SE 14 19 1017.7 - 0.0 - - - - - - -
30/08:00pm 24.5 SE 13 17 1017.4 - 0.0 - - - - - - -
30/07:30pm 24.6 SE 14 19 1017.0 - 0.0 - - - - - - -
30/07:00pm 24.6 SE 12 17 1016.6 - 0.0 - - - - - - -
30/06:30pm 24.9 SE 11 16 1016.2 - 0.0 - - - - - - -
30/06:00pm 25.0 SE 13 18 1016.0 - 0.0 - - - - - - -
30/05:30pm 25.5 SE 13 18 1015.8 - 0.0 - - - - - - -
30/05:00pm 25.7 SE 14 20 1015.7 - 0.0 - - - - - - -
30/04:30pm 26.5 SE 16 20 1015.4 - 0.0 - - - - - - -
30/04:00pm 26.3 SE 16 20 1015.4 - 0.0 - - - - - - -
30/03:30pm 27.2 SE 15 21 1015.5 - 0.0 - - - - - - -
30/03:00pm 27.3 SE 15 20 1015.7 - 0.0 - - - - - - -
30/02:30pm 27.5 SE 16 21 1015.8 - 0.0 - - - - - - -
30/02:00pm 27.4 SE 16 21 1016.1 - 0.0 - - - - - - -
30/01:30pm 25.6 SE 13 22 1016.6 - 0.0 - - - - - - -
30/01:00pm 27.8 SE 16 22 1016.9 - 0.0 - - - - - - -
30/12:30pm 27.5 SE 15 21 1017.4 - 0.0 - - - - - - -
30/12:00pm 27.4 SE 14 20 1017.8 - 0.0 - - - - - - -
30/11:30am 27.4 SE 15 21 1018.2 - 0.0 - - - - - - -
30/11:00am 27.6 SE 15 22 1018.5 - 0.0 - - - - - - -
30/10:30am 27.2 SE 16 21 1018.6 - 0.0 - - - - - - -
30/10:00am 27.1 ESE 15 23 1018.9 - 0.0 - - - - - - -
30/09:30am 26.8 SE 17 22 1018.9 - 0.0 - - - - - - -
30/09:00am 26.2 SE 16 22 1018.8 - 0.0 - - - - - - -
30/08:30am 25.8 SE 15 21 1018.5 - 0.0 - - - - - - -
30/08:00am 25.1 SE 14 21 1018.2 - 0.0 - - - - - - -
30/07:30am 24.5 SE 16 23 1018.0 - 0.0 - - - - - - -
30/07:00am 23.5 SE 15 25 1017.8 - 0.0 - - - - - - -
30/06:55am 23.6 SE 15 25 1017.8 - 0.0 - - - - - - -
30/06:30am 23.6 SE 14 21 1017.6 - 0.0 - - - - - - -
30/06:07am 24.2 SE 15 25 1017.5 - 0.0 - - - - - - -
30/06:00am 24.2 ESE 13 19 1017.4 - 0.0 - - - - - - -
30/05:30am 23.5 SE 11 17 1017.2 - 0.0 - - - - - - -
30/05:00am 24.2 ESE 14 19 1017.0 - 0.0 - - - - - - -
30/04:30am 24.4 SE 15 22 1016.9 - 0.0 - - - - - - -
30/04:00am 24.4 SE 14 21 1017.0 - 0.0 - - - - - - -
30/03:30am 24.2 SE 14 21 1017.1 - 0.0 - - - - - - -
30/03:00am 24.3 SE 13 17 1017.1 - 0.0 - - - - - - -
30/02:30am 24.4 SE 14 19 1017.2 - 0.0 - - - - - - -
30/02:00am 24.1 SE 13 21 1017.6 - 0.0 - - - - - - -
30/01:30am 24.2 SE 16 22 1017.8 - 0.0 - - - - - - -
30/01:00am 24.1 SE 16 24 1018.1 - 0.0 - - - - - - -
30/12:30am 24.1 SE 15 23 1018.3 - 0.0 - - - - - - -
30/12:00am 24.1 SE 18 25 1018.4 - 0.0 - - - - - - -
 
Date/Time
EST
Temp
°C
Wind Pressure Rain since
9am
mm
Weather Cloud Vis
km
Sea
Height
m
Swell
Dir  Spd
kts
Gust
kts
hPa Trend Height
m
Period
s
Dir
29/11:30pm 23.9 SE 16 24 1018.5 - 0.0 - - - - - - -
29/11:00pm 24.1 SE 17 24 1018.8 - 0.0 - - - - - - -
29/10:30pm 24.2 SE 18 24 1019.0 - 0.0 - - - - - - -
29/10:00pm 24.2 SE 19 26 1019.0 - 0.0 - - - - - - -
29/09:30pm 23.9 SSE 19 27 1019.0 - 0.0 - - - - - - -
29/09:00pm 23.9 SSE 19 26 1019.0 - 0.0 - - - - - - -
29/08:33pm 23.8 SSE 20 30 1018.8 - 0.0 - - - - - - -
29/08:30pm 23.8 SSE 19 26 1018.8 - 0.0 - - - - - - -
29/08:00pm 24.2 SE 21 29 1018.6 - 0.0 - - - - - - -
29/07:33pm 24.0 SE 19 29 1018.4 - 0.0 - - - - - - -
29/07:30pm 23.9 SE 18 25 1018.4 - 0.0 - - - - - - -
29/07:00pm 23.8 SSE 19 27 1018.0 - 0.0 - - - - - - -
29/06:30pm 24.0 SSE 18 27 1017.7 - 0.0 - - - - - - -
29/06:28pm 23.8 SSE 18 28 1017.7 - 0.0 - - - - - - -
29/06:00pm 23.8 SSE 22 27 1017.3 - 0.0 - - - - - - -
29/05:30pm 23.8 SSE 22 27 1017.3 - 0.0 - - - - - - -
29/05:00pm 24.0 SE 20 27 1017.3 - 0.0 - - - - - - -
29/04:31pm 24.3 SE 18 30 1017.0 - 0.0 - - - - - - -
29/04:30pm 24.3 SE 18 26 1017.0 - 0.0 - - - - - - -
29/04:00pm 24.2 SE 20 28 1016.9 - 0.0 - - - - - - -
29/03:30pm 24.4 SE 21 28 1016.8 - 0.0 - - - - - - -
29/03:00pm 25.2 SE 22 30 1016.9 - 0.0 - - - - - - -
29/02:30pm 24.8 SE 21 27 1017.1 - 0.0 - - - - - - -
29/02:00pm 24.6 SE 22 29 1017.3 - 0.0 - - - - - - -
29/01:30pm 24.8 SSE 23 31 1017.5 - 0.0 - - - - - - -
29/01:07pm 24.5 SE 20 30 1018.1 - 0.0 - - - - - - -
29/01:00pm 24.3 SE 20 27 1018.3 - 0.0 - - - - - - -
29/12:30pm 24.4 SE 21 29 1018.6 - 0.0 - - - - - - -
29/12:00pm 24.7 SE 21 29 1019.0 - 0.0 - - - - - - -
29/11:30am 25.2 SE 23 31 1019.3 - 0.0 - - - - - - -
29/11:00am 25.6 SE 21 31 1019.2 - 0.0 - - - - - - -
29/10:30am 25.3 SE 23 33 1019.2 - 0.0 - - - - - - -
29/10:11am 25.3 SE 22 32 1019.2 - 0.0 - - - - - - -
29/10:00am 24.8 SE 24 30 1019.2 - 0.0 - - - - - - -
29/09:30am 25.0 SE 21 29 1019.1 - 0.0 - - - - - - -
29/09:02am 24.1 SE 20 30 1019.3 - 0.0 - - - - - - -
29/09:00am 24.1 SE 21 30 1019.2 - 2.4 - - - - - - -
29/08:35am 23.9 SE 19 29 1019.2 - 2.4 - - - - - - -
29/08:30am 23.9 SE 20 29 1019.2 - 2.4 - - - - - - -
29/08:13am 23.5 SE 19 29 1018.9 - 2.4 - - - - - - -
29/08:00am 23.2 SE 21 29 1018.7 - 2.4 - - - - - - -
29/07:30am 23.9 SE 19 28 1018.4 - 2.4 - - - - - - -
29/07:00am 23.9 SE 21 30 1018.0 - 2.4 - - - - - - -
29/06:44am 23.9 SE 19 29 1017.9 - 2.4 - - - - - - -
29/06:30am 24.0 SE 23 29 1017.7 - 2.4 - - - - - - -
29/06:03am 24.0 SE 20 31 1017.6 - 2.4 - - - - - - -
29/06:00am 24.0 SE 21 28 1017.5 - 2.4 - - - - - - -
29/05:30am 24.1 SE 22 33 1017.2 - 2.4 - - - - - - -
29/05:24am 24.1 SE 23 33 1017.1 - 2.4 - - - - - - -
29/05:00am 23.8 SSE 23 31 1017.0 - 2.4 - - - - - - -
29/04:47am 23.9 SE 23 34 1017.0 - 2.4 - - - - - - -
29/04:30am 24.0 SE 20 29 1017.0 - 2.4 - - - - - - -
29/04:25am 23.9 SE 22 32 1016.9 - 2.4 - - - - - - -
29/04:00am 23.8 SE 24 32 1016.9 - 2.4 - - - - - - -
29/03:51am 23.8 SE 22 32 1016.9 - 2.4 - - - - - - -
29/03:30am 23.8 SE 23 30 1017.0 - 2.4 - - - - - - -
29/03:00am 23.9 SE 23 33 1017.2 - 2.4 - - - - - - -
29/02:30am 23.5 SE 23 33 1017.5 - 2.4 - - - - - - -
29/02:20am 23.6 SE 22 32 1017.5 - 2.4 - - - - - - -
29/02:00am 23.6 SE 21 29 1017.6 - 2.4 - - - - - - -
29/01:30am 23.4 SE 23 31 1018.0 - 2.2 - - - - - - -
29/01:23am 23.4 SSE 22 32 1018.1 - 2.2 - - - - - - -
29/01:00am 24.0 SSE 20 27 1018.1 - 1.8 - - - - - - -
29/12:30am 23.4 SSE 22 30 1018.3 - 1.8 - - - - - - -
29/12:00am 23.3 SSE 22 30 1018.4 - 1.8 Recent precip. - - - - - -
 
Date/Time
EST
Temp
°C
Wind Pressure Rain since
9am
mm
Weather Cloud Vis
km
Sea
Height
m
Swell
Dir  Spd
kts
Gust
kts
hPa Trend Height
m
Period
s
Dir
28/11:44pm 23.6 SSE 20 30 1018.4 - 1.8 - - - - - - -
28/11:30pm 23.6 SSE 22 28 1018.5 - 1.6 - - - - - - -
28/11:00pm 23.3 SSE 21 28 1018.5 - 1.6 - - - - - - -
28/10:30pm 23.7 SSE 21 27 1018.5 - 1.4 - - - - - - -
28/10:00pm 23.5 SSE 19 28 1018.6 - 1.4 - - - - - - -
28/09:30pm 24.6 SSE 19 26 1018.6 - 0.4 - - - - - - -
28/09:00pm 24.6 SSE 21 26 1018.3 - 0.4 - - - - - - -
28/08:30pm 24.5 SSE 19 27 1018.2 - 0.4 - - - - - - -
28/08:00pm 24.6 SSE 19 26 1018.0 - 0.4 - - - - - - -
28/07:30pm 24.8 SSE 20 27 1017.8 - 0.4 - - - - - - -
28/07:00pm 24.6 SSE 19 26 1017.5 - 0.4 - - - - - - -
28/06:30pm 24.7 SSE 20 27 1017.2 - 0.4 - - - - - - -
28/06:00pm 24.6 SSE 22 29 1016.9 - 0.4 - - - - - - -
28/05:30pm 24.8 SSE 19 25 1016.4 - 0.4 - - - - - - -
28/05:00pm 25.0 SSE 21 28 1016.3 - 0.4 - - - - - - -
28/04:30pm 25.7 SSE 22 28 1016.0 - 0.4 - - - - - - -
28/04:00pm 25.4 SSE 21 29 1015.9 - 0.4 - - - - - - -
28/03:30pm 25.6 SSE 21 30 1015.8 - 0.4 - - - - - - -
28/03:00pm 25.8 SSE 19 28 1015.9 - 0.4 - - - - - - -
28/02:30pm 25.3 SSE 20 29 1015.8 - 0.4 - - - - - - -
28/02:00pm 25.3 SSE 19 25 1016.0 - 0.4 - - - - - - -
28/01:30pm 26.7 SSE 19 27 1016.2 - 0.0 - - - - - - -
28/01:00pm 28.7 SE 18 24 1016.3 - 0.0 - - - - - - -
28/12:30pm 27.4 SE 17 22 1016.4 - 0.0 - - - - - - -
28/12:00pm 28.1 SE 17 24 1016.6 - 0.0 - - - - - - -
28/11:30am 28.2 SE 17 23 1016.9 - 0.0 - - - - - - -
28/11:00am 27.8 SE 17 21 1017.1 - 0.0 - - - - - - -
28/10:30am 27.8 SE 15 21 1017.3 - 0.0 - - - - - - -
28/10:00am 27.4 SE 16 21 1017.2 - 0.0 - - - - - - -
28/09:30am 27.7 SE 15 20 1017.1 - 0.0 - - - - - - -
28/09:00am 27.4 SE 14 21 1016.9 - 0.0 - - - - - - -
28/08:30am 26.7 SE 15 19 1016.8 - 0.0 - - - - - - -
28/08:00am 26.0 SE 14 19 1016.6 - 0.0 - - - - - - -
28/07:30am 25.4 SE 11 16 1016.1 - 0.0 - - - - - - -
28/07:00am 25.2 SE 12 17 1015.8 - 0.0 - - - - - - -
28/06:30am 25.1 SE 10 13 1015.5 - 0.0 - - - - - - -
28/06:00am 24.9 SE 10 14 1015.1 - 0.0 - - - - - - -
28/05:30am 24.9 SE 10 14 1014.9 - 0.0 - - - - - - -
28/05:00am 24.9 SE 11 14 1014.8 - 0.0 - - - - - - -
28/04:30am 24.7 SSE 9 13 1014.7 - 0.0 - - - - - - -
28/04:00am 25.0 SE 10 13 1014.7 - 0.0 - - - - - - -

Other Formats:

Comma delimited format used in spreadsheet applications
http://www.bom.gov.au/fwo/IDQ60701/IDQ60701.94188.axf

JavaScript Object Notation format (JSON) in row-major order
http://www.bom.gov.au/fwo/IDQ60701/IDQ60701.94188.json